Time;durP1;ratioP1;P1;durP2;ratioP2;P2;SDS_P1;SDS_P2;PMS_P1;PMS_P2;Temp;Humidity;BMP_temperature;BMP_pressure;BME280_temperature;BME280_humidity;BME280_pressure;Samples;Min_cycle;Max_cycle;Signal;HPM_P1;HPM_P2
2023/09/23 00:00:36;;;;;;;4.60;4.18;;;;;;;;;;6231542;28;20498;-69
2023/09/23 00:03:41;;;;;;;4.43;4.03;;;;;;;;;;6230770;28;20304;-70
2023/09/23 00:06:45;;;;;;;5.40;5.00;;;;;;;;;;6232855;28;20265;-70
2023/09/23 00:09:51;;;;;;;7.47;5.00;;;;;;;;;;6232156;28;20308;-70
2023/09/23 00:12:55;;;;;;;4.40;4.13;;;;;;;;;;6232500;28;20301;-70
2023/09/23 00:16:03;;;;;;;4.55;4.35;;;;;;;;;;6233238;28;20308;-70
2023/09/23 00:19:08;;;;;;;4.40;4.20;;;;;;;;;;6231234;28;20316;-71
2023/09/23 00:22:12;;;;;;;6.13;3.90;;;;;;;;;;6232282;28;20315;-69
2023/09/23 00:25:18;;;;;;;3.50;3.30;;;;;;;;;;6232146;28;20299;-70
2023/09/23 00:28:30;;;;;;;3.70;3.55;;;;;;;;;;6232080;28;20391;-70
2023/09/23 00:31:36;;;;;;;3.78;3.53;;;;;;;;;;6232360;28;20288;-70
2023/09/23 00:34:40;;;;;;;5.53;3.67;;;;;;;;;;6230336;28;20313;-70
2023/09/23 00:37:48;;;;;;;3.75;3.55;;;;;;;;;;6235155;28;20384;-69
2023/09/23 00:40:52;;;;;;;3.83;3.50;;;;;;;;;;6236028;28;20300;-70
2023/09/23 00:43:57;;;;;;;4.57;3.25;;;;;;;;;;6236364;28;20586;-70
2023/09/23 00:47:04;;;;;;;3.22;2.90;;;;;;;;;;6236932;28;20299;-71
2023/09/23 00:50:17;;;;;;;3.13;2.88;;;;;;;;;;6251661;28;20300;-71
2023/09/23 00:53:21;;;;;;;2.70;2.70;;;;;;;;;;6236437;28;20312;-70
2023/09/23 00:56:30;;;;;;;3.05;2.90;;;;;;;;;;6236550;28;20307;-69
2023/09/23 00:59:35;;;;;;;3.10;3.00;;;;;;;;;;6235998;28;20342;-71
2023/09/23 01:02:41;;;;;;;3.53;3.20;;;;;;;;;;6249858;28;20308;-69
2023/09/23 01:05:46;;;;;;;3.72;3.42;;;;;;;;;;6236078;28;20340;-71
2023/09/23 01:08:50;;;;;;;4.00;3.70;;;;;;;;;;6236091;28;20299;-69
2023/09/23 01:11:55;;;;;;;4.40;3.72;;;;;;;;;;6235157;28;20307;-69
2023/09/23 01:14:59;;;;;;;3.83;3.72;;;;;;;;;;6236020;28;20312;-69
2023/09/23 01:18:12;;;;;;;4.15;3.85;;;;;;;;;;6235549;28;20296;-70
2023/09/23 01:21:18;;;;;;;3.15;3.05;;;;;;;;;;6251590;28;20328;-69
2023/09/23 01:24:24;;;;;;;3.50;3.30;;;;;;;;;;6250175;28;20297;-70
2023/09/23 01:27:27;;;;;;;3.00;2.80;;;;;;;;;;6235658;28;20316;-70
2023/09/23 01:30:31;;;;;;;3.20;2.90;;;;;;;;;;6250436;28;20312;-70
2023/09/23 01:33:35;;;;;;;2.55;2.38;;;;;;;;;;6234653;28;20580;-70
2023/09/23 01:36:39;;;;;;;2.45;2.45;;;;;;;;;;6235359;28;20454;-71
2023/09/23 01:39:47;;;;;;;3.40;3.10;;;;;;;;;;6235673;28;20296;-69
2023/09/23 01:42:51;;;;;;;2.75;2.70;;;;;;;;;;6235466;28;20276;-71
2023/09/23 01:46:02;;;;;;;2.90;2.70;;;;;;;;;;6249606;28;20299;-70
2023/09/23 01:49:06;;;;;;;2.58;2.53;;;;;;;;;;6249803;28;20308;-69
2023/09/23 01:52:10;;;;;;;2.10;2.00;;;;;;;;;;6250588;28;20573;-70
2023/09/23 01:55:16;;;;;;;1.70;1.70;;;;;;;;;;6249446;28;20464;-70
2023/09/23 01:58:22;;;;;;;2.20;1.88;;;;;;;;;;6249614;28;20480;-70
2023/09/23 02:01:27;;;;;;;1.70;1.60;;;;;;;;;;6250063;28;20343;-70
2023/09/23 02:04:33;;;;;;;2.03;1.60;;;;;;;;;;6248023;28;20433;-69
2023/09/23 02:07:39;;;;;;;1.85;1.85;;;;;;;;;;6235271;28;20296;-69
2023/09/23 02:10:46;;;;;;;1.90;1.80;;;;;;;;;;6234453;28;20304;-70
2023/09/23 02:13:50;;;;;;;1.85;1.75;;;;;;;;;;6234354;28;20628;-69
2023/09/23 02:16:54;;;;;;;1.90;1.90;;;;;;;;;;6234913;28;20296;-70
2023/09/23 02:19:59;;;;;;;3.50;2.20;;;;;;;;;;6234187;28;20311;-70
2023/09/23 02:23:05;;;;;;;2.10;2.00;;;;;;;;;;6232305;28;20443;-71
2023/09/23 02:26:11;;;;;;;2.38;2.10;;;;;;;;;;6233415;28;20304;-70
2023/09/23 02:29:16;;;;;;;1.98;1.92;;;;;;;;;;6234041;28;20307;-70
2023/09/23 02:32:20;;;;;;;2.42;2.25;;;;;;;;;;6234606;28;20292;-70
2023/09/23 02:35:25;;;;;;;3.40;3.15;;;;;;;;;;6233404;28;20316;-69
2023/09/23 02:38:29;;;;;;;5.10;2.50;;;;;;;;;;6233998;28;20550;-70
2023/09/23 02:41:34;;;;;;;1.88;1.88;;;;;;;;;;6233813;28;20296;-70
2023/09/23 02:44:38;;;;;;;2.25;1.90;;;;;;;;;;6231960;28;20528;-70
2023/09/23 02:47:43;;;;;;;2.83;1.60;;;;;;;;;;6234352;28;20312;-69
2023/09/23 02:50:48;;;;;;;2.20;2.05;;;;;;;;;;6248487;28;20304;-70
2023/09/23 02:53:51;;;;;;;1.70;1.70;;;;;;;;;;6231453;28;20288;-70
2023/09/23 02:56:56;;;;;;;2.13;2.03;;;;;;;;;;6234050;28;20239;-70
2023/09/23 03:00:10;;;;;;;4.45;2.22;;;;;;;;;;6247708;28;20300;-70
2023/09/23 03:03:19;;;;;;;1.77;1.67;;;;;;;;;;6218667;28;20300;-70
2023/09/23 03:06:23;;;;;;;1.73;1.67;;;;;;;;;;6246625;28;20309;-71
2023/09/23 03:09:32;;;;;;;1.88;1.80;;;;;;;;;;6234065;28;20475;-69
2023/09/23 03:12:42;;;;;;;4.35;2.22;;;;;;;;;;6232824;28;20276;-69
2023/09/23 03:15:50;;;;;;;1.63;1.42;;;;;;;;;;6247791;28;20308;-70
2023/09/23 03:19:09;;;;;;;2.05;1.63;;;;;;;;;;6233071;28;20300;-70
2023/09/23 03:22:14;;;;;;;1.50;1.50;;;;;;;;;;6233482;28;20336;-70
2023/09/23 03:25:19;;;;;;;2.00;1.85;;;;;;;;;;6247824;28;20308;-70
2023/09/23 03:28:24;;;;;;;1.45;1.38;;;;;;;;;;6233108;28;20296;-69
2023/09/23 03:31:28;;;;;;;1.70;1.70;;;;;;;;;;6247676;28;20308;-70
2023/09/23 03:34:32;;;;;;;2.00;2.00;;;;;;;;;;6232510;28;20308;-69
2023/09/23 03:37:38;;;;;;;1.75;1.70;;;;;;;;;;6233036;28;20543;-70
2023/09/23 03:40:42;;;;;;;1.98;1.92;;;;;;;;;;6247796;28;20482;-69
2023/09/23 03:43:47;;;;;;;5.65;2.25;;;;;;;;;;6247409;28;20292;-69
2023/09/23 03:46:52;;;;;;;2.83;2.72;;;;;;;;;;6247559;28;20303;-69
2023/09/23 03:49:56;;;;;;;3.63;3.38;;;;;;;;;;6232592;28;20300;-69
2023/09/23 03:53:00;;;;;;;2.60;2.58;;;;;;;;;;6247964;28;20833;-69
2023/09/23 03:56:05;;;;;;;2.78;1.55;;;;;;;;;;6232023;28;20362;-69
2023/09/23 03:59:11;;;;;;;1.70;1.60;;;;;;;;;;6247460;28;20292;-69
2023/09/23 04:02:16;;;;;;;1.95;1.83;;;;;;;;;;6246112;28;20308;-71
2023/09/23 04:05:23;;;;;;;2.28;1.75;;;;;;;;;;6232327;28;20308;-70
2023/09/23 04:08:28;;;;;;;1.58;1.38;;;;;;;;;;6232981;28;20312;-69
2023/09/23 04:11:32;;;;;;;1.70;1.60;;;;;;;;;;6243755;28;20529;-68
2023/09/23 04:14:37;;;;;;;2.03;1.80;;;;;;;;;;6212631;28;20292;-71
2023/09/23 04:17:40;;;;;;;2.38;1.70;;;;;;;;;;6213239;28;20297;-69
2023/09/23 04:20:45;;;;;;;1.40;1.30;;;;;;;;;;6212712;28;20534;-69
2023/09/23 04:23:49;;;;;;;1.88;1.67;;;;;;;;;;6212287;28;20313;-69
2023/09/23 04:26:54;;;;;;;1.60;1.50;;;;;;;;;;6212927;28;20300;-70
2023/09/23 04:30:00;;;;;;;2.20;1.38;;;;;;;;;;6211434;28;20297;-69
2023/09/23 04:33:05;;;;;;;1.67;1.40;;;;;;;;;;6213184;28;20585;-70
2023/09/23 04:36:11;;;;;;;1.38;1.38;;;;;;;;;;6211613;28;20316;-69
2023/09/23 04:39:14;;;;;;;2.78;1.70;;;;;;;;;;6212068;28;20305;-68
2023/09/23 04:42:18;;;;;;;1.45;1.40;;;;;;;;;;6212517;28;20308;-69
2023/09/23 04:45:24;;;;;;;1.33;1.33;;;;;;;;;;6211882;28;20392;-69
2023/09/23 04:48:30;;;;;;;1.40;1.40;;;;;;;;;;6212269;28;20297;-69
2023/09/23 04:51:34;;;;;;;2.72;2.20;;;;;;;;;;6211338;28;20310;-69
2023/09/23 04:54:38;;;;;;;1.42;1.40;;;;;;;;;;6211858;28;20296;-70
2023/09/23 04:57:42;;;;;;;1.65;1.13;;;;;;;;;;6212205;28;20414;-68
2023/09/23 05:00:47;;;;;;;1.42;1.30;;;;;;;;;;6211752;28;20289;-69
2023/09/23 05:03:52;;;;;;;1.50;1.50;;;;;;;;;;6210322;28;20615;-69
2023/09/23 05:06:56;;;;;;;3.78;1.98;;;;;;;;;;6212259;28;20308;-69
2023/09/23 05:10:00;;;;;;;3.35;2.00;;;;;;;;;;6211938;28;20313;-70
2023/09/23 05:13:05;;;;;;;1.92;1.83;;;;;;;;;;6236455;28;20316;-69
2023/09/23 05:16:10;;;;;;;2.20;1.70;;;;;;;;;;6235880;28;20297;-69
2023/09/23 05:19:14;;;;;;;1.65;1.58;;;;;;;;;;6235520;28;20292;-69
2023/09/23 05:22:18;;;;;;;2.00;1.90;;;;;;;;;;6235560;28;20308;-70
2023/09/23 05:25:24;;;;;;;2.58;1.50;;;;;;;;;;6235161;28;20312;-69
2023/09/23 05:28:28;;;;;;;1.80;1.75;;;;;;;;;;6236135;28;20308;-71
2023/09/23 05:31:36;;;;;;;1.45;1.42;;;;;;;;;;6250926;28;20300;-70
2023/09/23 05:34:40;;;;;;;2.08;1.50;;;;;;;;;;6235212;28;20321;-69
2023/09/23 05:37:44;;;;;;;1.48;1.48;;;;;;;;;;6235717;28;20312;-69
2023/09/23 05:40:47;;;;;;;1.60;1.60;;;;;;;;;;6234997;28;20292;-69
2023/09/23 05:43:52;;;;;;;1.80;1.52;;;;;;;;;;6234834;28;20312;-71
2023/09/23 05:46:57;;;;;;;1.88;1.67;;;;;;;;;;6235625;28;20296;-69
2023/09/23 05:50:06;;;;;;;1.42;1.42;;;;;;;;;;6234780;28;20309;-69
2023/09/23 05:53:10;;;;;;;1.40;1.40;;;;;;;;;;6235354;28;20319;-69
2023/09/23 05:56:14;;;;;;;1.60;1.60;;;;;;;;;;6235025;28;20303;-69
2023/09/23 05:59:18;;;;;;;1.50;1.50;;;;;;;;;;6234963;28;20499;-70
2023/09/23 06:02:24;;;;;;;3.35;1.40;;;;;;;;;;6233085;28;20551;-69
2023/09/23 06:05:28;;;;;;;2.80;1.42;;;;;;;;;;6234383;28;20571;-69
2023/09/23 06:08:31;;;;;;;1.52;1.42;;;;;;;;;;6234927;28;20300;-69
2023/09/23 06:11:37;;;;;;;1.38;1.38;;;;;;;;;;6233834;28;20597;-69
2023/09/23 06:14:40;;;;;;;1.63;1.52;;;;;;;;;;6233752;28;20605;-70
2023/09/23 06:17:46;;;;;;;1.50;1.40;;;;;;;;;;6234259;28;20308;-69
2023/09/23 06:20:49;;;;;;;2.25;1.70;;;;;;;;;;6234043;28;20609;-69
2023/09/23 06:23:53;;;;;;;10.38;2.28;;;;;;;;;;6233894;28;20304;-70
2023/09/23 06:26:57;;;;;;;1.70;1.70;;;;;;;;;;6234580;28;20304;-68
2023/09/23 06:30:02;;;;;;;2.25;2.20;;;;;;;;;;6233729;28;20312;-69
2023/09/23 06:33:07;;;;;;;2.72;2.13;;;;;;;;;;6233576;28;20307;-68
2023/09/23 06:36:11;;;;;;;2.13;1.85;;;;;;;;;;6233262;28;20527;-70
2023/09/23 06:39:15;;;;;;;2.47;2.38;;;;;;;;;;6233409;28;20621;-70
2023/09/23 06:42:19;;;;;;;2.33;2.13;;;;;;;;;;6234271;28;20596;-70
2023/09/23 06:45:22;;;;;;;2.67;2.40;;;;;;;;;;6248923;28;20312;-70
2023/09/23 06:48:28;;;;;;;2.38;2.17;;;;;;;;;;6233774;28;20468;-71
2023/09/23 06:51:32;;;;;;;2.67;2.30;;;;;;;;;;6233318;28;20291;-69
2023/09/23 06:54:36;;;;;;;2.63;2.50;;;;;;;;;;6231548;28;20588;-70
2023/09/23 06:57:39;;;;;;;2.47;2.30;;;;;;;;;;6233542;28;20448;-69
2023/09/23 07:00:43;;;;;;;3.65;2.47;;;;;;;;;;6233205;28;20300;-70
2023/09/23 07:03:48;;;;;;;2.90;2.72;;;;;;;;;;6231051;28;20263;-71
2023/09/23 07:06:53;;;;;;;2.55;2.42;;;;;;;;;;6231916;28;20577;-71
2023/09/23 07:09:57;;;;;;;3.53;2.40;;;;;;;;;;6232836;28;20303;-69
2023/09/23 07:13:00;;;;;;;2.53;2.50;;;;;;;;;;6208569;28;20438;-69
2023/09/23 07:16:05;;;;;;;2.45;2.10;;;;;;;;;;6208254;28;20309;-69
2023/09/23 07:19:11;;;;;;;2.63;1.83;;;;;;;;;;6223196;28;20300;-69
2023/09/23 07:22:15;;;;;;;1.88;1.77;;;;;;;;;;6209304;28;20400;-69
2023/09/23 07:25:18;;;;;;;1.80;1.80;;;;;;;;;;6208534;28;20480;-70
2023/09/23 07:28:22;;;;;;;2.00;1.80;;;;;;;;;;6208592;28;20364;-69
2023/09/23 07:31:26;;;;;;;3.17;1.73;;;;;;;;;;6208154;28;20308;-69
2023/09/23 07:34:31;;;;;;;1.92;1.92;;;;;;;;;;6207830;28;20301;-70
2023/09/23 07:37:35;;;;;;;2.13;1.85;;;;;;;;;;6208468;28;20382;-70
2023/09/23 07:40:40;;;;;;;1.80;1.80;;;;;;;;;;6207993;28;20300;-70
2023/09/23 07:43:44;;;;;;;3.67;1.65;;;;;;;;;;6207985;28;20313;-68
2023/09/23 07:46:48;;;;;;;2.10;2.00;;;;;;;;;;6232747;28;20311;-70
2023/09/23 07:49:54;;;;;;;2.63;2.25;;;;;;;;;;6231888;28;20295;-69
2023/09/23 07:52:58;;;;;;;1.88;1.88;;;;;;;;;;6232320;28;20609;-70
2023/09/23 07:56:02;;;;;;;10.25;1.75;;;;;;;;;;6246563;28;20319;-70
2023/09/23 07:59:06;;;;;;;4.88;1.90;;;;;;;;;;6232044;28;20303;-69
2023/09/23 08:02:10;;;;;;;1.92;1.83;;;;;;;;;;6230801;28;20299;-70
2023/09/23 08:05:15;;;;;;;1.80;1.77;;;;;;;;;;6232131;28;20300;-70
2023/09/23 08:08:19;;;;;;;1.90;1.90;;;;;;;;;;6232529;28;20498;-71
2023/09/23 08:11:23;;;;;;;2.22;1.85;;;;;;;;;;6231730;28;20299;-70
2023/09/23 08:14:27;;;;;;;2.28;2.10;;;;;;;;;;6231766;28;20499;-69
2023/09/23 08:17:31;;;;;;;1.75;1.60;;;;;;;;;;6232549;28;20304;-69
2023/09/23 08:20:36;;;;;;;1.90;1.80;;;;;;;;;;6232387;28;20554;-70
2023/09/23 08:23:40;;;;;;;3.45;1.67;;;;;;;;;;6231719;28;20299;-69
2023/09/23 08:26:44;;;;;;;4.00;2.20;;;;;;;;;;6232224;28;20304;-70
2023/09/23 08:29:49;;;;;;;3.45;2.08;;;;;;;;;;6231472;28;20391;-70
2023/09/23 08:32:54;;;;;;;1.90;1.80;;;;;;;;;;6231922;28;20300;-69
2023/09/23 08:36:00;;;;;;;2.47;1.60;;;;;;;;;;6231459;28;20316;-69
2023/09/23 08:39:07;;;;;;;2.58;1.60;;;;;;;;;;6231769;28;20558;-69
2023/09/23 08:42:11;;;;;;;1.77;1.63;;;;;;;;;;6232043;28;20308;-71
2023/09/23 08:45:16;;;;;;;1.80;1.70;;;;;;;;;;6231896;28;20296;-69
2023/09/23 08:48:20;;;;;;;3.05;1.80;;;;;;;;;;6232586;28;20308;-69
2023/09/23 08:51:25;;;;;;;1.77;1.77;;;;;;;;;;6231736;28;20320;-71
2023/09/23 08:54:29;;;;;;;2.00;1.98;;;;;;;;;;6230577;28;20300;-70
2023/09/23 08:57:33;;;;;;;1.90;1.80;;;;;;;;;;6210642;28;20276;-70
2023/09/23 09:00:44;;;;;;;1.80;1.80;;;;;;;;;;6211413;28;20328;-69
2023/09/23 09:03:49;;;;;;;2.15;1.65;;;;;;;;;;6209737;28;20261;-70
2023/09/23 09:06:55;;;;;;;5.57;2.00;;;;;;;;;;6212299;28;22069;-70
2023/09/23 09:09:58;;;;;;;1.60;1.50;;;;;;;;;;6226560;28;20297;-69
2023/09/23 09:13:04;;;;;;;2.17;2.08;;;;;;;;;;6236503;28;20299;-69
2023/09/23 09:16:08;;;;;;;2.08;1.55;;;;;;;;;;6235999;28;20296;-70
2023/09/23 09:19:12;;;;;;;2.10;2.00;;;;;;;;;;6235745;28;20296;-69
2023/09/23 09:22:19;;;;;;;6.03;2.22;;;;;;;;;;6235295;28;20304;-70
2023/09/23 09:25:23;;;;;;;1.90;1.80;;;;;;;;;;6236380;28;20300;-70
2023/09/23 09:28:26;;;;;;;1.63;1.63;;;;;;;;;;6236468;28;20331;-69
2023/09/23 09:31:33;;;;;;;2.30;2.13;;;;;;;;;;6235224;28;20300;-69
2023/09/23 09:34:44;;;;;;;2.00;1.90;;;;;;;;;;6234988;28;20296;-70
2023/09/23 09:37:50;;;;;;;1.65;1.65;;;;;;;;;;6236058;28;20308;-70
2023/09/23 09:41:14;;;;;;;1.73;1.70;;;;;;;;;;6234897;28;20304;-69
2023/09/23 09:44:21;;;;;;;2.80;1.70;;;;;;;;;;6234609;28;20296;-68
2023/09/23 09:47:27;;;;;;;1.88;1.77;;;;;;;;;;6235319;28;20307;-69
2023/09/23 09:50:31;;;;;;;1.73;1.63;;;;;;;;;;6234915;28;20304;-70
2023/09/23 09:53:37;;;;;;;2.00;1.90;;;;;;;;;;6235362;28;20296;-70
2023/09/23 09:56:41;;;;;;;1.80;1.80;;;;;;;;;;6234096;28;20300;-70
2023/09/23 09:59:46;;;;;;;1.70;1.70;;;;;;;;;;6234368;28;20312;-70
2023/09/23 10:02:49;;;;;;;2.65;1.50;;;;;;;;;;6231584;28;20308;-70
2023/09/23 10:05:53;;;;;;;2.92;1.92;;;;;;;;;;6234248;28;20379;-70
2023/09/23 10:08:59;;;;;;;3.22;1.58;;;;;;;;;;6234161;28;20323;-70
2023/09/23 10:12:04;;;;;;;1.90;1.80;;;;;;;;;;6234906;28;20299;-70
2023/09/23 10:15:12;;;;;;;1.90;1.80;;;;;;;;;;6235303;28;20586;-69
2023/09/23 10:18:17;;;;;;;1.60;1.60;;;;;;;;;;6234814;28;20363;-70
2023/09/23 10:21:27;;;;;;;7.88;1.90;;;;;;;;;;6233569;28;20312;-70
2023/09/23 10:24:35;;;;;;;1.80;1.70;;;;;;;;;;6248665;28;20320;-69
2023/09/23 10:27:39;;;;;;;1.85;1.75;;;;;;;;;;6233870;28;20333;-70
2023/09/23 10:30:43;;;;;;;1.65;1.55;;;;;;;;;;6233942;28;20300;-69
2023/09/23 10:33:47;;;;;;;1.50;1.50;;;;;;;;;;6233775;28;20249;-68
2023/09/23 10:36:51;;;;;;;1.58;1.48;;;;;;;;;;6233872;28;20292;-72
2023/09/23 10:39:56;;;;;;;1.77;1.67;;;;;;;;;;6233727;28;20510;-71
2023/09/23 10:43:08;;;;;;;2.05;1.83;;;;;;;;;;6234512;28;20326;-71
2023/09/23 10:46:12;;;;;;;1.50;1.50;;;;;;;;;;6233412;28;20308;-70
2023/09/23 10:49:15;;;;;;;1.40;1.40;;;;;;;;;;6233752;28;20304;-70
2023/09/23 10:52:21;;;;;;;4.00;1.60;;;;;;;;;;6234217;28;20399;-71
2023/09/23 10:55:26;;;;;;;1.73;1.50;;;;;;;;;;6233454;28;20295;-70
2023/09/23 10:58:31;;;;;;;1.30;1.30;;;;;;;;;;6233403;28;20338;-70
2023/09/23 11:01:35;;;;;;;1.42;1.35;;;;;;;;;;6247894;28;20296;-69
2023/09/23 11:04:39;;;;;;;1.45;1.45;;;;;;;;;;6231351;28;20594;-68
2023/09/23 11:07:43;;;;;;;1.50;1.42;;;;;;;;;;6248804;28;20300;-70
2023/09/23 11:10:49;;;;;;;2.85;2.17;;;;;;;;;;6232542;28;20292;-69
2023/09/23 11:13:55;;;;;;;2.40;2.22;;;;;;;;;;6232557;28;20296;-72
2023/09/23 11:17:00;;;;;;;2.10;2.10;;;;;;;;;;6233249;28;20300;-68
2023/09/23 11:20:08;;;;;;;2.53;1.83;;;;;;;;;;6232247;28;20308;-69
2023/09/23 11:23:12;;;;;;;1.50;1.50;;;;;;;;;;6232949;28;20297;-69
2023/09/23 11:26:18;;;;;;;1.35;1.35;;;;;;;;;;6232573;28;20245;-70
2023/09/23 11:29:21;;;;;;;1.90;1.55;;;;;;;;;;6232430;28;20304;-70
2023/09/23 11:32:26;;;;;;;1.40;1.40;;;;;;;;;;6232199;28;20621;-70
2023/09/23 11:35:30;;;;;;;1.30;1.30;;;;;;;;;;6231683;28;20304;-70
2023/09/23 11:38:34;;;;;;;1.75;1.40;;;;;;;;;;6232800;28;20596;-70
2023/09/23 11:41:39;;;;;;;1.50;1.40;;;;;;;;;;6231548;28;20311;-70
2023/09/23 11:44:43;;;;;;;1.38;1.38;;;;;;;;;;6231825;28;20305;-70
2023/09/23 11:47:48;;;;;;;1.48;1.30;;;;;;;;;;6232411;28;20315;-71
2023/09/23 11:50:53;;;;;;;1.20;1.20;;;;;;;;;;6231882;28;20308;-71
2023/09/23 11:53:56;;;;;;;1.30;1.30;;;;;;;;;;6231906;28;20420;-70
2023/09/23 11:57:02;;;;;;;2.83;1.40;;;;;;;;;;6231906;28;20300;-71
2023/09/23 12:00:09;;;;;;;2.20;1.20;;;;;;;;;;6231938;28;20303;-70
2023/09/23 12:03:14;;;;;;;1.83;1.40;;;;;;;;;;6230588;28;20308;-71
2023/09/23 12:06:19;;;;;;;1.38;1.02;;;;;;;;;;6231997;28;20484;-71
2023/09/23 12:09:23;;;;;;;2.45;1.35;;;;;;;;;;6231638;28;20287;-70
2023/09/23 12:12:29;;;;;;;1.30;1.25;;;;;;;;;;6232032;28;20501;-71
2023/09/23 12:15:33;;;;;;;1.48;1.25;;;;;;;;;;6231739;28;20319;-70
2023/09/23 12:18:38;;;;;;;1.05;1.05;;;;;;;;;;6230951;28;20269;-72
2023/09/23 12:21:42;;;;;;;1.20;1.20;;;;;;;;;;6231988;28;20591;-70
2023/09/23 12:24:46;;;;;;;2.38;1.38;;;;;;;;;;6231389;28;20297;-70
2023/09/23 12:27:51;;;;;;;1.27;1.27;;;;;;;;;;6230909;28;20289;-70
2023/09/23 12:30:55;;;;;;;1.73;1.13;;;;;;;;;;6231833;28;20309;-70
2023/09/23 12:33:59;;;;;;;1.30;1.30;;;;;;;;;;6235449;28;20324;-69
2023/09/23 12:37:03;;;;;;;1.08;1.08;;;;;;;;;;6236043;28;20316;-71
2023/09/23 12:40:09;;;;;;;1.92;1.25;;;;;;;;;;6235752;28;20301;-70
2023/09/23 12:43:15;;;;;;;1.27;1.27;;;;;;;;;;6236288;28;20300;-71
2023/09/23 12:46:18;;;;;;;1.20;1.20;;;;;;;;;;6235656;28;20300;-70
2023/09/23 12:49:22;;;;;;;1.38;1.27;;;;;;;;;;6235656;28;20305;-69
2023/09/23 12:52:26;;;;;;;1.60;1.25;;;;;;;;;;6251151;28;20303;-71
2023/09/23 12:55:30;;;;;;;1.48;1.17;;;;;;;;;;6235878;28;20300;-71
2023/09/23 12:58:35;;;;;;;1.17;1.17;;;;;;;;;;6235582;28;20311;-69
2023/09/23 13:01:39;;;;;;;1.30;1.20;;;;;;;;;;6235259;28;20611;-68
2023/09/23 13:04:43;;;;;;;1.98;1.20;;;;;;;;;;6234471;28;20295;-68
2023/09/23 13:07:46;;;;;;;1.25;1.25;;;;;;;;;;6236336;28;20387;-72
2023/09/23 13:10:51;;;;;;;2.13;1.50;;;;;;;;;;6234685;28;20292;-71
2023/09/23 13:13:56;;;;;;;1.45;1.35;;;;;;;;;;6250313;28;20308;-70
2023/09/23 13:17:00;;;;;;;1.25;1.25;;;;;;;;;;6235783;28;20308;-70
2023/09/23 13:20:05;;;;;;;1.48;1.48;;;;;;;;;;6234928;28;20300;-70
2023/09/23 13:23:09;;;;;;;1.75;1.35;;;;;;;;;;6235182;28;20316;-70
2023/09/23 13:26:13;;;;;;;1.13;1.13;;;;;;;;;;6235122;28;20300;-69
2023/09/23 13:29:18;;;;;;;1.30;1.20;;;;;;;;;;6235018;28;20296;-69
2023/09/23 13:32:22;;;;;;;2.85;1.30;;;;;;;;;;6234829;28;20316;-69
2023/09/23 13:35:26;;;;;;;2.67;1.27;;;;;;;;;;6234332;28;20320;-69
2023/09/23 13:38:30;;;;;;;1.30;1.20;;;;;;;;;;6235242;28;20300;-70
2023/09/23 13:41:34;;;;;;;2.58;1.52;;;;;;;;;;6234183;28;20315;-71
2023/09/23 13:44:40;;;;;;;2.35;1.38;;;;;;;;;;6234348;28;20325;-69
2023/09/23 13:47:46;;;;;;;2.30;1.33;;;;;;;;;;6234820;28;20292;-69
2023/09/23 13:50:50;;;;;;;1.35;1.35;;;;;;;;;;6234459;28;20296;-69
2023/09/23 13:53:53;;;;;;;1.40;1.30;;;;;;;;;;6234251;28;20515;-70
2023/09/23 13:56:57;;;;;;;1.45;1.45;;;;;;;;;;6234770;28;20307;-69
2023/09/23 14:00:04;;;;;;;1.20;1.20;;;;;;;;;;6234358;28;20311;-70
2023/09/23 14:03:07;;;;;;;1.77;1.40;;;;;;;;;;6234253;28;20296;-71
2023/09/23 14:06:11;;;;;;;2.75;1.55;;;;;;;;;;6233875;28;20636;-69
2023/09/23 14:09:15;;;;;;;1.60;1.60;;;;;;;;;;6234003;28;20316;-68
2023/09/23 14:12:19;;;;;;;1.60;1.60;;;;;;;;;;6234195;28;20299;-69
2023/09/23 14:15:24;;;;;;;1.40;1.40;;;;;;;;;;6234333;28;20296;-70
2023/09/23 14:18:28;;;;;;;1.48;1.48;;;;;;;;;;6234522;28;20308;-69
2023/09/23 14:21:32;;;;;;;1.92;1.60;;;;;;;;;;6234199;28;20304;-70
2023/09/23 14:24:35;;;;;;;2.78;1.70;;;;;;;;;;6233570;28;20296;-69
2023/09/23 14:27:39;;;;;;;1.58;1.50;;;;;;;;;;6234600;28;20249;-70
2023/09/23 14:30:44;;;;;;;1.50;1.50;;;;;;;;;;6235096;28;20308;-70
2023/09/23 14:33:48;;;;;;;1.88;1.70;;;;;;;;;;6233575;28;20246;-70
2023/09/23 14:36:53;;;;;;;2.15;1.60;;;;;;;;;;6234519;28;20384;-70
2023/09/23 14:39:57;;;;;;;1.70;1.70;;;;;;;;;;6233938;28;20293;-70
2023/09/23 14:43:01;;;;;;;2.50;2.30;;;;;;;;;;6234051;28;20541;-69
2023/09/23 14:46:06;;;;;;;2.00;1.90;;;;;;;;;;6233294;28;20603;-69
2023/09/23 14:49:11;;;;;;;2.33;2.10;;;;;;;;;;6233260;28;20300;-69
2023/09/23 14:52:15;;;;;;;2.10;2.00;;;;;;;;;;6233922;28;20292;-70
2023/09/23 14:55:20;;;;;;;2.03;2.03;;;;;;;;;;6232543;28;20295;-70
2023/09/23 14:58:24;;;;;;;1.90;1.90;;;;;;;;;;6233158;28;20300;-70
2023/09/23 15:01:29;;;;;;;3.35;1.90;;;;;;;;;;6233083;28;20557;-69
2023/09/23 15:04:34;;;;;;;2.03;1.92;;;;;;;;;;6230830;28;20313;-71
2023/09/23 15:07:38;;;;;;;2.08;1.98;;;;;;;;;;6233592;28;20558;-69
2023/09/23 15:10:41;;;;;;;2.38;1.95;;;;;;;;;;6232749;28;20308;-69
2023/09/23 15:13:45;;;;;;;2.30;2.10;;;;;;;;;;6233050;28;20307;-70
2023/09/23 15:16:50;;;;;;;2.17;2.03;;;;;;;;;;6233649;28;20309;-71
2023/09/23 15:19:54;;;;;;;2.33;2.22;;;;;;;;;;6232285;28;20316;-69
2023/09/23 15:23:01;;;;;;;1.95;1.92;;;;;;;;;;6232610;28;20376;-71
2023/09/23 15:26:05;;;;;;;2.38;1.77;;;;;;;;;;6230713;28;20300;-70
2023/09/23 15:29:09;;;;;;;2.10;2.00;;;;;;;;;;6232517;28;20288;-69
2023/09/23 15:32:15;;;;;;;1.90;1.85;;;;;;;;;;6232884;28;20300;-70
2023/09/23 15:35:22;;;;;;;2.55;2.05;;;;;;;;;;6231705;28;20316;-69
2023/09/23 15:38:26;;;;;;;4.00;2.20;;;;;;;;;;6232616;28;20292;-72
2023/09/23 15:41:29;;;;;;;2.20;2.20;;;;;;;;;;6232454;28;20292;-69
2023/09/23 15:44:34;;;;;;;2.50;2.28;;;;;;;;;;6231811;28;20311;-68
2023/09/23 15:47:39;;;;;;;4.53;3.15;;;;;;;;;;6232893;28;20610;-70
2023/09/23 15:50:43;;;;;;;2.72;2.60;;;;;;;;;;6232030;28;20312;-70
2023/09/23 15:53:47;;;;;;;2.70;2.53;;;;;;;;;;6232130;28;20309;-71
2023/09/23 15:56:51;;;;;;;3.17;2.90;;;;;;;;;;6232926;28;20304;-69
2023/09/23 15:59:56;;;;;;;2.90;2.78;;;;;;;;;;6232042;28;20314;-69
2023/09/23 16:03:01;;;;;;;3.00;2.90;;;;;;;;;;6230689;28;20312;-72
2023/09/23 16:06:05;;;;;;;4.05;3.40;;;;;;;;;;6234504;28;20494;-70
2023/09/23 16:09:09;;;;;;;4.75;3.60;;;;;;;;;;6236820;28;20319;-69
2023/09/23 16:12:13;;;;;;;8.68;4.18;;;;;;;;;;6237201;28;20300;-69
2023/09/23 16:15:17;;;;;;;3.67;3.38;;;;;;;;;;6236651;28;20304;-69
2023/09/23 16:18:23;;;;;;;3.63;3.33;;;;;;;;;;6236975;28;20400;-71
2023/09/23 16:21:27;;;;;;;3.25;3.00;;;;;;;;;;6212557;28;20301;-69
2023/09/23 16:24:30;;;;;;;3.20;3.00;;;;;;;;;;6210816;28;20452;-70
2023/09/23 16:27:34;;;;;;;5.90;3.33;;;;;;;;;;6211932;28;20288;-70
2023/09/23 16:30:40;;;;;;;4.03;3.65;;;;;;;;;;6212163;28;20336;-68
2023/09/23 16:33:45;;;;;;;3.67;3.42;;;;;;;;;;6212187;28;20253;-70
2023/09/23 16:36:49;;;;;;;4.25;3.75;;;;;;;;;;6212781;28;20301;-72
2023/09/23 16:39:53;;;;;;;4.03;3.80;;;;;;;;;;6221656;28;20304;-69
2023/09/23 16:42:57;;;;;;;4.50;4.20;;;;;;;;;;6237113;28;20577;-68
2023/09/23 16:46:01;;;;;;;4.78;4.35;;;;;;;;;;6235633;28;20494;-72
2023/09/23 16:49:06;;;;;;;4.55;4.13;;;;;;;;;;6235145;28;20289;-67
2023/09/23 16:52:11;;;;;;;4.18;3.78;;;;;;;;;;6236798;28;20304;-70
2023/09/23 16:55:15;;;;;;;4.32;3.70;;;;;;;;;;6236109;28;20820;-70
2023/09/23 16:58:23;;;;;;;4.60;4.20;;;;;;;;;;6236044;28;20650;-69
2023/09/23 17:01:27;;;;;;;5.18;4.65;;;;;;;;;;6251259;28;20315;-71
2023/09/23 17:04:32;;;;;;;6.15;5.05;;;;;;;;;;6233973;28;20327;-70
2023/09/23 17:07:36;;;;;;;10.02;4.72;;;;;;;;;;6236334;28;20309;-70
2023/09/23 17:10:40;;;;;;;5.50;4.85;;;;;;;;;;6250153;28;20300;-70
2023/09/23 17:13:44;;;;;;;12.43;8.55;;;;;;;;;;6235535;28;20510;-71
2023/09/23 17:16:47;;;;;;;7.90;7.20;;;;;;;;;;6235254;28;20305;-71
2023/09/23 17:19:52;;;;;;;9.65;6.80;;;;;;;;;;6235653;28;20352;-68
2023/09/23 17:22:56;;;;;;;6.53;5.93;;;;;;;;;;6236235;28;20309;-69
2023/09/23 17:26:03;;;;;;;7.38;6.55;;;;;;;;;;6235390;28;20327;-69
2023/09/23 17:29:07;;;;;;;6.38;5.82;;;;;;;;;;6235641;28;20328;-68
2023/09/23 17:32:11;;;;;;;6.53;6.03;;;;;;;;;;6235857;28;20573;-69
2023/09/23 17:35:17;;;;;;;7.40;6.35;;;;;;;;;;6234469;28;20332;-68
2023/09/23 17:38:21;;;;;;;8.48;6.28;;;;;;;;;;6235768;28;20308;-69
2023/09/23 17:41:25;;;;;;;7.45;6.18;;;;;;;;;;6235155;28;20300;-70
2023/09/23 17:44:29;;;;;;;6.85;6.35;;;;;;;;;;6234696;28;20308;-70
2023/09/23 17:47:33;;;;;;;7.07;6.38;;;;;;;;;;6234746;28;20312;-71
2023/09/23 17:50:39;;;;;;;8.00;7.05;;;;;;;;;;6234558;28;20314;-69
2023/09/23 17:53:42;;;;;;;8.07;6.28;;;;;;;;;;6234825;28;20323;-69
2023/09/23 17:56:46;;;;;;;7.03;6.25;;;;;;;;;;6235221;28;20308;-68
2023/09/23 17:59:50;;;;;;;6.68;6.13;;;;;;;;;;6234495;28;20437;-70
2023/09/23 18:02:54;;;;;;;7.57;6.03;;;;;;;;;;6232917;28;20455;-69
2023/09/23 18:05:59;;;;;;;7.63;6.25;;;;;;;;;;6234119;28;20316;-69
2023/09/23 18:09:03;;;;;;;6.43;5.93;;;;;;;;;;6234034;28;20585;-69
2023/09/23 18:12:07;;;;;;;6.88;6.10;;;;;;;;;;6234598;28;20308;-71
2023/09/23 18:15:12;;;;;;;6.45;5.85;;;;;;;;;;6234083;28;20308;-69
2023/09/23 18:18:16;;;;;;;6.00;5.45;;;;;;;;;;6234626;28;20296;-68
2023/09/23 18:21:23;;;;;;;7.70;5.65;;;;;;;;;;6233580;28;20300;-70
2023/09/23 18:24:27;;;;;;;5.82;5.53;;;;;;;;;;6233762;28;20300;-67
2023/09/23 18:27:31;;;;;;;6.75;5.45;;;;;;;;;;6234494;28;20495;-71